sensor_id;sensor_type;location;lat;lon;timestamp;P1;durP1;ratioP1;P2;durP2;ratioP2
52124;SDS011;38119;52.710;6.398;2023-03-26T00:01:18;9.07;;;2.00;;
52124;SDS011;38119;52.710;6.398;2023-03-26T00:03:47;10.15;;;2.10;;
52124;SDS011;38119;52.710;6.398;2023-03-26T00:06:18;9.38;;;2.30;;
52124;SDS011;38119;52.710;6.398;2023-03-26T00:09:13;10.75;;;1.83;;
52124;SDS011;38119;52.710;6.398;2023-03-26T00:11:40;11.50;;;2.45;;
52124;SDS011;38119;52.710;6.398;2023-03-26T00:14:07;9.52;;;2.13;;
52124;SDS011;38119;52.710;6.398;2023-03-26T00:16:33;7.97;;;2.05;;
52124;SDS011;38119;52.710;6.398;2023-03-26T00:19:00;13.02;;;2.42;;
52124;SDS011;38119;52.710;6.398;2023-03-26T00:21:27;7.90;;;1.95;;
52124;SDS011;38119;52.710;6.398;2023-03-26T00:23:54;10.60;;;2.55;;
52124;SDS011;38119;52.710;6.398;2023-03-26T00:26:23;10.95;;;2.30;;
52124;SDS011;38119;52.710;6.398;2023-03-26T00:28:50;8.00;;;1.92;;
52124;SDS011;38119;52.710;6.398;2023-03-26T00:31:16;13.13;;;2.28;;
52124;SDS011;38119;52.710;6.398;2023-03-26T00:33:42;9.73;;;2.03;;
52124;SDS011;38119;52.710;6.398;2023-03-26T00:36:11;9.98;;;2.38;;
52124;SDS011;38119;52.710;6.398;2023-03-26T00:38:39;7.63;;;2.10;;
52124;SDS011;38119;52.710;6.398;2023-03-26T00:41:06;9.85;;;1.90;;
52124;SDS011;38119;52.710;6.398;2023-03-26T00:43:42;15.18;;;2.10;;
52124;SDS011;38119;52.710;6.398;2023-03-26T00:46:09;7.18;;;2.10;;
52124;SDS011;38119;52.710;6.398;2023-03-26T00:48:35;7.28;;;2.03;;
52124;SDS011;38119;52.710;6.398;2023-03-26T00:51:03;6.65;;;2.00;;
52124;SDS011;38119;52.710;6.398;2023-03-26T00:55:59;8.38;;;2.13;;
52124;SDS011;38119;52.710;6.398;2023-03-26T00:58:25;7.45;;;2.42;;
52124;SDS011;38119;52.710;6.398;2023-03-26T01:00:55;10.15;;;2.40;;
52124;SDS011;38119;52.710;6.398;2023-03-26T01:03:23;11.85;;;2.28;;
52124;SDS011;38119;52.710;6.398;2023-03-26T01:05:50;9.27;;;2.20;;
52124;SDS011;38119;52.710;6.398;2023-03-26T01:11:12;11.73;;;2.47;;
52124;SDS011;38119;52.710;6.398;2023-03-26T01:14:04;10.95;;;2.47;;
52124;SDS011;38119;52.710;6.398;2023-03-26T01:16:39;10.25;;;2.42;;
52124;SDS011;38119;52.710;6.398;2023-03-26T01:19:14;9.52;;;1.92;;
52124;SDS011;38119;52.710;6.398;2023-03-26T01:21:53;8.18;;;2.45;;
52124;SDS011;38119;52.710;6.398;2023-03-26T01:24:18;11.27;;;2.75;;
52124;SDS011;38119;52.710;6.398;2023-03-26T01:29:52;6.93;;;2.00;;
52124;SDS011;38119;52.710;6.398;2023-03-26T01:32:47;9.50;;;2.10;;
52124;SDS011;38119;52.710;6.398;2023-03-26T01:35:23;11.52;;;2.30;;
52124;SDS011;38119;52.710;6.398;2023-03-26T01:38:00;9.95;;;2.10;;
52124;SDS011;38119;52.710;6.398;2023-03-26T01:40:35;14.52;;;2.30;;
52124;SDS011;38119;52.710;6.398;2023-03-26T01:43:23;7.30;;;2.10;;
52124;SDS011;38119;52.710;6.398;2023-03-26T01:45:57;8.23;;;2.17;;
52124;SDS011;38119;52.710;6.398;2023-03-26T01:48:44;10.55;;;2.25;;
52124;SDS011;38119;52.710;6.398;2023-03-26T01:51:11;6.80;;;2.00;;
52124;SDS011;38119;52.710;6.398;2023-03-26T01:53:40;11.57;;;2.58;;
52124;SDS011;38119;52.710;6.398;2023-03-26T02:01:51;8.40;;;2.47;;
52124;SDS011;38119;52.710;6.398;2023-03-26T02:04:26;9.35;;;2.40;;
52124;SDS011;38119;52.710;6.398;2023-03-26T02:07:24;7.32;;;2.08;;
52124;SDS011;38119;52.710;6.398;2023-03-26T02:12:34;10.18;;;2.50;;
52124;SDS011;38119;52.710;6.398;2023-03-26T02:15:01;10.95;;;2.33;;
52124;SDS011;38119;52.710;6.398;2023-03-26T02:17:26;10.65;;;2.83;;
52124;SDS011;38119;52.710;6.398;2023-03-26T02:19:54;12.68;;;2.35;;
52124;SDS011;38119;52.710;6.398;2023-03-26T02:22:20;8.07;;;2.28;;
52124;SDS011;38119;52.710;6.398;2023-03-26T02:24:54;6.03;;;1.90;;
52124;SDS011;38119;52.710;6.398;2023-03-26T02:27:19;8.95;;;2.28;;
52124;SDS011;38119;52.710;6.398;2023-03-26T02:29:45;10.80;;;2.47;;
52124;SDS011;38119;52.710;6.398;2023-03-26T02:32:12;7.65;;;2.05;;
52124;SDS011;38119;52.710;6.398;2023-03-26T02:34:40;7.53;;;2.03;;
52124;SDS011;38119;52.710;6.398;2023-03-26T02:37:06;6.65;;;2.00;;
52124;SDS011;38119;52.710;6.398;2023-03-26T02:39:33;6.80;;;2.30;;
52124;SDS011;38119;52.710;6.398;2023-03-26T02:41:59;8.10;;;2.30;;
52124;SDS011;38119;52.710;6.398;2023-03-26T02:44:25;6.80;;;2.40;;
52124;SDS011;38119;52.710;6.398;2023-03-26T02:46:51;8.95;;;2.28;;
52124;SDS011;38119;52.710;6.398;2023-03-26T02:49:16;6.63;;;2.55;;
52124;SDS011;38119;52.710;6.398;2023-03-26T02:51:42;8.48;;;2.20;;
52124;SDS011;38119;52.710;6.398;2023-03-26T02:54:07;9.10;;;2.38;;
52124;SDS011;38119;52.710;6.398;2023-03-26T02:56:33;6.40;;;2.17;;
52124;SDS011;38119;52.710;6.398;2023-03-26T02:58:59;8.07;;;2.17;;
52124;SDS011;38119;52.710;6.398;2023-03-26T03:01:25;11.20;;;2.25;;
52124;SDS011;38119;52.710;6.398;2023-03-26T03:03:50;9.38;;;2.72;;
52124;SDS011;38119;52.710;6.398;2023-03-26T03:06:16;7.35;;;2.30;;
52124;SDS011;38119;52.710;6.398;2023-03-26T03:08:43;6.43;;;2.10;;
52124;SDS011;38119;52.710;6.398;2023-03-26T03:11:14;8.77;;;2.13;;
52124;SDS011;38119;52.710;6.398;2023-03-26T03:13:42;8.70;;;2.40;;
52124;SDS011;38119;52.710;6.398;2023-03-26T03:16:08;7.63;;;2.90;;
52124;SDS011;38119;52.710;6.398;2023-03-26T03:18:34;7.47;;;2.42;;
52124;SDS011;38119;52.710;6.398;2023-03-26T03:21:00;15.32;;;2.85;;
52124;SDS011;38119;52.710;6.398;2023-03-26T03:23:27;10.25;;;2.85;;
52124;SDS011;38119;52.710;6.398;2023-03-26T03:25:52;8.40;;;2.13;;
52124;SDS011;38119;52.710;6.398;2023-03-26T03:28:21;5.40;;;2.20;;
52124;SDS011;38119;52.710;6.398;2023-03-26T03:30:47;7.70;;;2.28;;
52124;SDS011;38119;52.710;6.398;2023-03-26T03:33:16;7.82;;;2.38;;
52124;SDS011;38119;52.710;6.398;2023-03-26T03:35:44;6.50;;;2.42;;
52124;SDS011;38119;52.710;6.398;2023-03-26T03:38:13;7.63;;;2.40;;
52124;SDS011;38119;52.710;6.398;2023-03-26T03:40:43;11.90;;;2.92;;
52124;SDS011;38119;52.710;6.398;2023-03-26T03:43:09;5.65;;;2.33;;
52124;SDS011;38119;52.710;6.398;2023-03-26T03:45:34;8.50;;;2.70;;
52124;SDS011;38119;52.710;6.398;2023-03-26T03:48:00;6.95;;;2.50;;
52124;SDS011;38119;52.710;6.398;2023-03-26T03:50:25;9.35;;;2.60;;
52124;SDS011;38119;52.710;6.398;2023-03-26T03:52:51;9.00;;;2.60;;
52124;SDS011;38119;52.710;6.398;2023-03-26T03:55:17;6.45;;;2.38;;
52124;SDS011;38119;52.710;6.398;2023-03-26T03:57:42;7.63;;;2.47;;
52124;SDS011;38119;52.710;6.398;2023-03-26T04:00:08;6.53;;;2.35;;
52124;SDS011;38119;52.710;6.398;2023-03-26T04:02:35;6.65;;;2.30;;
52124;SDS011;38119;52.710;6.398;2023-03-26T04:05:02;7.38;;;2.67;;
52124;SDS011;38119;52.710;6.398;2023-03-26T04:07:29;9.40;;;2.90;;
52124;SDS011;38119;52.710;6.398;2023-03-26T04:09:56;6.85;;;2.33;;
52124;SDS011;38119;52.710;6.398;2023-03-26T04:12:23;8.85;;;2.35;;
52124;SDS011;38119;52.710;6.398;2023-03-26T04:14:53;8.75;;;2.67;;
52124;SDS011;38119;52.710;6.398;2023-03-26T04:17:19;5.38;;;2.40;;
52124;SDS011;38119;52.710;6.398;2023-03-26T04:19:46;5.47;;;2.20;;
52124;SDS011;38119;52.710;6.398;2023-03-26T04:22:11;9.23;;;2.40;;
52124;SDS011;38119;52.710;6.398;2023-03-26T04:24:37;7.03;;;2.35;;
52124;SDS011;38119;52.710;6.398;2023-03-26T04:27:04;5.45;;;2.17;;
52124;SDS011;38119;52.710;6.398;2023-03-26T04:29:33;7.15;;;2.58;;
52124;SDS011;38119;52.710;6.398;2023-03-26T04:32:07;5.57;;;2.35;;
52124;SDS011;38119;52.710;6.398;2023-03-26T04:34:38;6.13;;;2.30;;
52124;SDS011;38119;52.710;6.398;2023-03-26T04:37:03;4.90;;;2.35;;
52124;SDS011;38119;52.710;6.398;2023-03-26T04:39:29;9.90;;;2.92;;
52124;SDS011;38119;52.710;6.398;2023-03-26T04:41:58;8.23;;;2.60;;
52124;SDS011;38119;52.710;6.398;2023-03-26T04:44:24;10.18;;;3.00;;
52124;SDS011;38119;52.710;6.398;2023-03-26T04:46:50;6.63;;;2.90;;
52124;SDS011;38119;52.710;6.398;2023-03-26T04:49:19;6.00;;;2.65;;
52124;SDS011;38119;52.710;6.398;2023-03-26T04:51:44;6.95;;;2.80;;
52124;SDS011;38119;52.710;6.398;2023-03-26T04:54:11;8.05;;;2.75;;
52124;SDS011;38119;52.710;6.398;2023-03-26T04:59:13;8.63;;;2.95;;
52124;SDS011;38119;52.710;6.398;2023-03-26T05:01:42;10.35;;;2.90;;
52124;SDS011;38119;52.710;6.398;2023-03-26T05:04:10;7.35;;;2.90;;
52124;SDS011;38119;52.710;6.398;2023-03-26T05:06:37;11.48;;;2.90;;
52124;SDS011;38119;52.710;6.398;2023-03-26T05:09:03;9.38;;;2.60;;
52124;SDS011;38119;52.710;6.398;2023-03-26T05:11:29;9.73;;;2.72;;
52124;SDS011;38119;52.710;6.398;2023-03-26T05:13:55;6.22;;;2.50;;
52124;SDS011;38119;52.710;6.398;2023-03-26T05:16:21;8.23;;;2.88;;
52124;SDS011;38119;52.710;6.398;2023-03-26T05:18:48;5.70;;;2.28;;
52124;SDS011;38119;52.710;6.398;2023-03-26T05:21:13;6.80;;;2.53;;
52124;SDS011;38119;52.710;6.398;2023-03-26T05:23:39;7.07;;;2.33;;
52124;SDS011;38119;52.710;6.398;2023-03-26T05:26:05;10.05;;;2.80;;
52124;SDS011;38119;52.710;6.398;2023-03-26T05:28:31;8.50;;;2.70;;
52124;SDS011;38119;52.710;6.398;2023-03-26T05:30:57;7.97;;;2.55;;
52124;SDS011;38119;52.710;6.398;2023-03-26T05:33:22;8.95;;;2.50;;
52124;SDS011;38119;52.710;6.398;2023-03-26T05:35:57;11.40;;;2.97;;
52124;SDS011;38119;52.710;6.398;2023-03-26T05:38:24;7.75;;;2.80;;
52124;SDS011;38119;52.710;6.398;2023-03-26T05:40:49;8.52;;;2.88;;
52124;SDS011;38119;52.710;6.398;2023-03-26T05:43:15;10.05;;;3.30;;
52124;SDS011;38119;52.710;6.398;2023-03-26T05:45:40;8.15;;;3.45;;
52124;SDS011;38119;52.710;6.398;2023-03-26T05:48:06;11.80;;;3.17;;
52124;SDS011;38119;52.710;6.398;2023-03-26T05:50:31;9.85;;;2.90;;
52124;SDS011;38119;52.710;6.398;2023-03-26T05:52:57;7.10;;;2.42;;
52124;SDS011;38119;52.710;6.398;2023-03-26T05:55:22;12.10;;;3.00;;
52124;SDS011;38119;52.710;6.398;2023-03-26T05:57:48;6.88;;;2.90;;
52124;SDS011;38119;52.710;6.398;2023-03-26T06:00:13;8.32;;;3.03;;
52124;SDS011;38119;52.710;6.398;2023-03-26T06:02:40;9.15;;;2.53;;
52124;SDS011;38119;52.710;6.398;2023-03-26T06:05:06;6.15;;;2.40;;
52124;SDS011;38119;52.710;6.398;2023-03-26T06:07:34;6.65;;;2.85;;
52124;SDS011;38119;52.710;6.398;2023-03-26T06:10:00;8.30;;;2.72;;
52124;SDS011;38119;52.710;6.398;2023-03-26T06:12:26;7.60;;;3.33;;
52124;SDS011;38119;52.710;6.398;2023-03-26T06:14:52;8.45;;;2.65;;
52124;SDS011;38119;52.710;6.398;2023-03-26T06:17:17;6.65;;;2.30;;
52124;SDS011;38119;52.710;6.398;2023-03-26T06:19:43;9.55;;;3.10;;
52124;SDS011;38119;52.710;6.398;2023-03-26T06:22:08;10.13;;;2.90;;
52124;SDS011;38119;52.710;6.398;2023-03-26T06:24:34;5.70;;;2.70;;
52124;SDS011;38119;52.710;6.398;2023-03-26T06:27:00;7.38;;;2.85;;
52124;SDS011;38119;52.710;6.398;2023-03-26T06:29:26;10.98;;;2.90;;
52124;SDS011;38119;52.710;6.398;2023-03-26T06:31:51;10.48;;;2.80;;
52124;SDS011;38119;52.710;6.398;2023-03-26T06:34:19;7.72;;;2.78;;
52124;SDS011;38119;52.710;6.398;2023-03-26T06:36:44;9.00;;;2.92;;
52124;SDS011;38119;52.710;6.398;2023-03-26T06:39:12;10.50;;;3.25;;
52124;SDS011;38119;52.710;6.398;2023-03-26T06:41:38;8.68;;;3.75;;
52124;SDS011;38119;52.710;6.398;2023-03-26T06:44:05;10.27;;;3.30;;
52124;SDS011;38119;52.710;6.398;2023-03-26T06:46:30;11.95;;;3.53;;
52124;SDS011;38119;52.710;6.398;2023-03-26T06:48:56;11.80;;;3.70;;
52124;SDS011;38119;52.710;6.398;2023-03-26T06:51:22;10.57;;;3.03;;
52124;SDS011;38119;52.710;6.398;2023-03-26T06:53:47;13.27;;;3.70;;
52124;SDS011;38119;52.710;6.398;2023-03-26T06:56:14;15.95;;;3.70;;
52124;SDS011;38119;52.710;6.398;2023-03-26T06:58:40;14.45;;;3.42;;
52124;SDS011;38119;52.710;6.398;2023-03-26T07:01:06;13.57;;;3.78;;
52124;SDS011;38119;52.710;6.398;2023-03-26T07:03:31;16.00;;;3.75;;
52124;SDS011;38119;52.710;6.398;2023-03-26T07:05:57;12.95;;;3.80;;
52124;SDS011;38119;52.710;6.398;2023-03-26T07:08:22;14.38;;;3.83;;
52124;SDS011;38119;52.710;6.398;2023-03-26T07:10:48;14.57;;;3.47;;
52124;SDS011;38119;52.710;6.398;2023-03-26T07:13:13;17.60;;;3.65;;
52124;SDS011;38119;52.710;6.398;2023-03-26T07:15:39;15.38;;;3.60;;
52124;SDS011;38119;52.710;6.398;2023-03-26T07:18:05;17.15;;;3.60;;
52124;SDS011;38119;52.710;6.398;2023-03-26T07:20:31;11.63;;;2.92;;
52124;SDS011;38119;52.710;6.398;2023-03-26T07:22:57;14.52;;;3.67;;
52124;SDS011;38119;52.710;6.398;2023-03-26T07:25:22;17.77;;;3.72;;
52124;SDS011;38119;52.710;6.398;2023-03-26T07:30:25;15.02;;;3.40;;
52124;SDS011;38119;52.710;6.398;2023-03-26T07:33:17;12.15;;;3.13;;
52124;SDS011;38119;52.710;6.398;2023-03-26T07:36:11;15.30;;;3.70;;
52124;SDS011;38119;52.710;6.398;2023-03-26T07:38:54;18.70;;;3.67;;
52124;SDS011;38119;52.710;6.398;2023-03-26T07:41:54;20.90;;;3.25;;
52124;SDS011;38119;52.710;6.398;2023-03-26T07:44:44;18.60;;;3.63;;
52124;SDS011;38119;52.710;6.398;2023-03-26T07:49:53;16.05;;;3.10;;
52124;SDS011;38119;52.710;6.398;2023-03-26T07:52:21;14.98;;;3.63;;
52124;SDS011;38119;52.710;6.398;2023-03-26T07:54:48;19.75;;;3.35;;
52124;SDS011;38119;52.710;6.398;2023-03-26T07:57:30;21.55;;;3.72;;
52124;SDS011;38119;52.710;6.398;2023-03-26T08:00:02;21.05;;;4.22;;
52124;SDS011;38119;52.710;6.398;2023-03-26T08:02:39;16.75;;;4.00;;
52124;SDS011;38119;52.710;6.398;2023-03-26T08:05:19;17.73;;;3.92;;
52124;SDS011;38119;52.710;6.398;2023-03-26T08:13:22;16.75;;;3.42;;
52124;SDS011;38119;52.710;6.398;2023-03-26T08:15:56;16.05;;;3.75;;
52124;SDS011;38119;52.710;6.398;2023-03-26T08:18:47;15.90;;;4.30;;
52124;SDS011;38119;52.710;6.398;2023-03-26T08:21:27;20.38;;;5.25;;
52124;SDS011;38119;52.710;6.398;2023-03-26T08:24:04;21.80;;;7.05;;
52124;SDS011;38119;52.710;6.398;2023-03-26T08:26:43;20.90;;;5.80;;
52124;SDS011;38119;52.710;6.398;2023-03-26T08:32:14;20.85;;;3.85;;
52124;SDS011;38119;52.710;6.398;2023-03-26T08:34:42;20.13;;;3.65;;
52124;SDS011;38119;52.710;6.398;2023-03-26T08:37:10;13.93;;;3.25;;
52124;SDS011;38119;52.710;6.398;2023-03-26T08:39:36;16.20;;;3.78;;
52124;SDS011;38119;52.710;6.398;2023-03-26T08:44:56;19.30;;;3.80;;
52124;SDS011;38119;52.710;6.398;2023-03-26T08:53:17;13.77;;;2.60;;
52124;SDS011;38119;52.710;6.398;2023-03-26T09:10:21;17.08;;;3.60;;
52124;SDS011;38119;52.710;6.398;2023-03-26T09:13:12;15.45;;;3.20;;
52124;SDS011;38119;52.710;6.398;2023-03-26T09:21:43;23.33;;;5.50;;
52124;SDS011;38119;52.710;6.398;2023-03-26T09:24:31;18.42;;;3.33;;
52124;SDS011;38119;52.710;6.398;2023-03-26T09:29:59;17.50;;;2.88;;
52124;SDS011;38119;52.710;6.398;2023-03-26T09:46:30;17.35;;;3.38;;
52124;SDS011;38119;52.710;6.398;2023-03-26T09:52:17;15.43;;;3.58;;
52124;SDS011;38119;52.710;6.398;2023-03-26T09:57:46;18.75;;;3.25;;
52124;SDS011;38119;52.710;6.398;2023-03-26T10:03:56;19.15;;;3.25;;
52124;SDS011;38119;52.710;6.398;2023-03-26T10:20:34;13.63;;;2.78;;
52124;SDS011;38119;52.710;6.398;2023-03-26T10:39:28;13.32;;;2.67;;
52124;SDS011;38119;52.710;6.398;2023-03-26T10:50:56;11.40;;;2.83;;
52124;SDS011;38119;52.710;6.398;2023-03-26T10:53:35;12.07;;;3.03;;
52124;SDS011;38119;52.710;6.398;2023-03-26T10:59:14;11.88;;;2.33;;
52124;SDS011;38119;52.710;6.398;2023-03-26T11:04:53;15.95;;;2.85;;
52124;SDS011;38119;52.710;6.398;2023-03-26T11:07:31;10.82;;;2.38;;
52124;SDS011;38119;52.710;6.398;2023-03-26T11:15:27;14.63;;;3.38;;
52124;SDS011;38119;52.710;6.398;2023-03-26T11:18:09;13.80;;;3.70;;
52124;SDS011;38119;52.710;6.398;2023-03-26T11:20:50;18.42;;;6.32;;
52124;SDS011;38119;52.710;6.398;2023-03-26T11:23:36;14.55;;;3.88;;
52124;SDS011;38119;52.710;6.398;2023-03-26T11:34:01;15.68;;;2.65;;
52124;SDS011;38119;52.710;6.398;2023-03-26T11:36:34;14.10;;;3.33;;
52124;SDS011;38119;52.710;6.398;2023-03-26T11:39:06;12.43;;;2.83;;
52124;SDS011;38119;52.710;6.398;2023-03-26T11:41:37;12.57;;;2.95;;
52124;SDS011;38119;52.710;6.398;2023-03-26T11:44:05;14.20;;;2.90;;
52124;SDS011;38119;52.710;6.398;2023-03-26T11:46:45;11.05;;;2.60;;
52124;SDS011;38119;52.710;6.398;2023-03-26T11:49:16;11.05;;;2.50;;
52124;SDS011;38119;52.710;6.398;2023-03-26T11:51:45;17.58;;;3.15;;
52124;SDS011;38119;52.710;6.398;2023-03-26T11:54:12;9.85;;;2.63;;
52124;SDS011;38119;52.710;6.398;2023-03-26T11:56:52;9.70;;;2.40;;
52124;SDS011;38119;52.710;6.398;2023-03-26T12:04:34;10.27;;;2.72;;
52124;SDS011;38119;52.710;6.398;2023-03-26T12:09:54;6.63;;;2.10;;
52124;SDS011;38119;52.710;6.398;2023-03-26T12:12:25;8.27;;;2.00;;
52124;SDS011;38119;52.710;6.398;2023-03-26T12:14:55;11.07;;;2.22;;
52124;SDS011;38119;52.710;6.398;2023-03-26T12:19:53;13.20;;;2.50;;
52124;SDS011;38119;52.710;6.398;2023-03-26T12:22:30;12.77;;;2.17;;
52124;SDS011;38119;52.710;6.398;2023-03-26T12:27:48;10.98;;;2.70;;
52124;SDS011;38119;52.710;6.398;2023-03-26T12:35:43;11.15;;;2.78;;
52124;SDS011;38119;52.710;6.398;2023-03-26T12:40:48;8.55;;;2.53;;
52124;SDS011;38119;52.710;6.398;2023-03-26T12:46:18;10.82;;;2.20;;
52124;SDS011;38119;52.710;6.398;2023-03-26T12:48:44;10.02;;;2.63;;
52124;SDS011;38119;52.710;6.398;2023-03-26T12:51:14;16.63;;;3.15;;
52124;SDS011;38119;52.710;6.398;2023-03-26T13:02:13;13.65;;;2.90;;
52124;SDS011;38119;52.710;6.398;2023-03-26T13:07:58;10.27;;;2.85;;
52124;SDS011;38119;52.710;6.398;2023-03-26T13:10:49;13.45;;;3.10;;
52124;SDS011;38119;52.710;6.398;2023-03-26T13:16:15;13.25;;;2.80;;
52124;SDS011;38119;52.710;6.398;2023-03-26T13:18:54;10.25;;;2.20;;
52124;SDS011;38119;52.710;6.398;2023-03-26T13:24:46;10.80;;;2.70;;
52124;SDS011;38119;52.710;6.398;2023-03-26T13:27:21;11.75;;;2.40;;
52124;SDS011;38119;52.710;6.398;2023-03-26T13:30:17;10.65;;;2.35;;
52124;SDS011;38119;52.710;6.398;2023-03-26T13:32:58;12.10;;;2.72;;
52124;SDS011;38119;52.710;6.398;2023-03-26T13:36:07;8.80;;;2.75;;
52124;SDS011;38119;52.710;6.398;2023-03-26T13:38:52;13.43;;;3.25;;
52124;SDS011;38119;52.710;6.398;2023-03-26T13:44:22;14.82;;;3.05;;
52124;SDS011;38119;52.710;6.398;2023-03-26T13:47:17;14.45;;;2.75;;
52124;SDS011;38119;52.710;6.398;2023-03-26T13:54:50;16.27;;;2.65;;
52124;SDS011;38119;52.710;6.398;2023-03-26T13:57:40;9.65;;;2.03;;
52124;SDS011;38119;52.710;6.398;2023-03-26T14:00:11;13.75;;;2.47;;
52124;SDS011;38119;52.710;6.398;2023-03-26T14:02:42;8.95;;;2.05;;
52124;SDS011;38119;52.710;6.398;2023-03-26T14:05:14;19.23;;;2.88;;
52124;SDS011;38119;52.710;6.398;2023-03-26T14:07:54;11.35;;;2.22;;
52124;SDS011;38119;52.710;6.398;2023-03-26T14:10:35;13.82;;;2.42;;
52124;SDS011;38119;52.710;6.398;2023-03-26T14:15:53;9.90;;;2.10;;
52124;SDS011;38119;52.710;6.398;2023-03-26T14:26:43;8.57;;;2.10;;
52124;SDS011;38119;52.710;6.398;2023-03-26T14:29:36;8.80;;;2.22;;
52124;SDS011;38119;52.710;6.398;2023-03-26T14:38:04;11.25;;;2.17;;
52124;SDS011;38119;52.710;6.398;2023-03-26T14:43:58;11.82;;;2.20;;
52124;SDS011;38119;52.710;6.398;2023-03-26T14:49:40;11.50;;;2.85;;
52124;SDS011;38119;52.710;6.398;2023-03-26T14:55:21;11.98;;;1.73;;
52124;SDS011;38119;52.710;6.398;2023-03-26T15:03:55;10.50;;;1.88;;
52124;SDS011;38119;52.710;6.398;2023-03-26T15:31:58;9.23;;;1.67;;
52124;SDS011;38119;52.710;6.398;2023-03-26T15:35:02;8.57;;;1.65;;
52124;SDS011;38119;52.710;6.398;2023-03-26T15:43:20;9.50;;;1.95;;
52124;SDS011;38119;52.710;6.398;2023-03-26T15:45:51;12.43;;;2.20;;
52124;SDS011;38119;52.710;6.398;2023-03-26T15:49:01;9.90;;;1.90;;
52124;SDS011;38119;52.710;6.398;2023-03-26T15:54:22;11.95;;;2.13;;
52124;SDS011;38119;52.710;6.398;2023-03-26T15:59:34;9.10;;;2.05;;
52124;SDS011;38119;52.710;6.398;2023-03-26T16:02:16;13.63;;;2.23;;
52124;SDS011;38119;52.710;6.398;2023-03-26T16:05:01;10.75;;;2.47;;
52124;SDS011;38119;52.710;6.398;2023-03-26T16:13:22;23.45;;;10.55;;
52124;SDS011;38119;52.710;6.398;2023-03-26T16:18:29;15.75;;;7.75;;
52124;SDS011;38119;52.710;6.398;2023-03-26T16:21:08;16.42;;;4.25;;
52124;SDS011;38119;52.710;6.398;2023-03-26T16:26:15;13.68;;;3.45;;
52124;SDS011;38119;52.710;6.398;2023-03-26T16:31:17;12.68;;;3.53;;
52124;SDS011;38119;52.710;6.398;2023-03-26T16:36:33;12.73;;;2.50;;
52124;SDS011;38119;52.710;6.398;2023-03-26T16:41:30;11.15;;;3.63;;
52124;SDS011;38119;52.710;6.398;2023-03-26T16:43:59;13.48;;;2.92;;
52124;SDS011;38119;52.710;6.398;2023-03-26T16:46:43;13.70;;;7.07;;
52124;SDS011;38119;52.710;6.398;2023-03-26T16:55:12;13.25;;;2.53;;
52124;SDS011;38119;52.710;6.398;2023-03-26T17:00:30;9.15;;;1.83;;
52124;SDS011;38119;52.710;6.398;2023-03-26T17:08:34;13.25;;;3.58;;
52124;SDS011;38119;52.710;6.398;2023-03-26T17:16:42;15.80;;;7.35;;
52124;SDS011;38119;52.710;6.398;2023-03-26T17:19:41;12.70;;;4.20;;
52124;SDS011;38119;52.710;6.398;2023-03-26T17:25:18;15.52;;;3.38;;
52124;SDS011;38119;52.710;6.398;2023-03-26T17:35:51;17.80;;;3.38;;
52124;SDS011;38119;52.710;6.398;2023-03-26T17:41:08;11.88;;;3.25;;
52124;SDS011;38119;52.710;6.398;2023-03-26T17:43:41;16.88;;;4.43;;
52124;SDS011;38119;52.710;6.398;2023-03-26T17:46:48;9.57;;;2.85;;
52124;SDS011;38119;52.710;6.398;2023-03-26T17:54:27;11.75;;;2.70;;
52124;SDS011;38119;52.710;6.398;2023-03-26T17:57:15;10.45;;;2.88;;
52124;SDS011;38119;52.710;6.398;2023-03-26T18:02:38;11.80;;;2.50;;
52124;SDS011;38119;52.710;6.398;2023-03-26T18:05:09;7.93;;;1.95;;
52124;SDS011;38119;52.710;6.398;2023-03-26T18:18:13;10.40;;;1.83;;
52124;SDS011;38119;52.710;6.398;2023-03-26T18:20:44;14.68;;;4.40;;
52124;SDS011;38119;52.710;6.398;2023-03-26T18:23:23;9.77;;;2.58;;
52124;SDS011;38119;52.710;6.398;2023-03-26T18:26:13;10.77;;;2.15;;
52124;SDS011;38119;52.710;6.398;2023-03-26T18:28:44;11.75;;;2.40;;
52124;SDS011;38119;52.710;6.398;2023-03-26T18:31:15;11.40;;;2.33;;
52124;SDS011;38119;52.710;6.398;2023-03-26T18:33:48;9.50;;;2.10;;
52124;SDS011;38119;52.710;6.398;2023-03-26T18:36:17;8.65;;;2.80;;
52124;SDS011;38119;52.710;6.398;2023-03-26T18:38:44;12.95;;;2.63;;
52124;SDS011;38119;52.710;6.398;2023-03-26T18:41:15;11.20;;;2.30;;
52124;SDS011;38119;52.710;6.398;2023-03-26T18:43:51;10.15;;;2.20;;
52124;SDS011;38119;52.710;6.398;2023-03-26T18:46:17;11.27;;;2.15;;
52124;SDS011;38119;52.710;6.398;2023-03-26T18:48:42;13.70;;;2.90;;
52124;SDS011;38119;52.710;6.398;2023-03-26T18:51:10;12.52;;;2.70;;
52124;SDS011;38119;52.710;6.398;2023-03-26T18:53:36;40.50;;;14.98;;
52124;SDS011;38119;52.710;6.398;2023-03-26T18:59:04;18.90;;;7.10;;
52124;SDS011;38119;52.710;6.398;2023-03-26T19:01:32;19.92;;;6.00;;
52124;SDS011;38119;52.710;6.398;2023-03-26T19:04:01;13.70;;;3.88;;
52124;SDS011;38119;52.710;6.398;2023-03-26T19:06:30;10.10;;;3.72;;
52124;SDS011;38119;52.710;6.398;2023-03-26T19:09:00;22.58;;;9.98;;
52124;SDS011;38119;52.710;6.398;2023-03-26T19:11:30;25.83;;;11.93;;
52124;SDS011;38119;52.710;6.398;2023-03-26T19:14:00;15.63;;;8.57;;
52124;SDS011;38119;52.710;6.398;2023-03-26T19:16:39;12.48;;;6.75;;
52124;SDS011;38119;52.710;6.398;2023-03-26T19:19:10;19.05;;;10.93;;
52124;SDS011;38119;52.710;6.398;2023-03-26T19:21:42;10.85;;;4.00;;
52124;SDS011;38119;52.710;6.398;2023-03-26T19:24:08;10.18;;;4.07;;
52124;SDS011;38119;52.710;6.398;2023-03-26T19:26:35;16.00;;;4.20;;
52124;SDS011;38119;52.710;6.398;2023-03-26T19:29:02;14.25;;;4.47;;
52124;SDS011;38119;52.710;6.398;2023-03-26T19:31:31;14.38;;;4.10;;
52124;SDS011;38119;52.710;6.398;2023-03-26T19:34:00;26.63;;;7.90;;
52124;SDS011;38119;52.710;6.398;2023-03-26T19:39:16;14.75;;;3.75;;
52124;SDS011;38119;52.710;6.398;2023-03-26T19:41:41;13.13;;;3.28;;
52124;SDS011;38119;52.710;6.398;2023-03-26T19:44:26;10.07;;;3.90;;
52124;SDS011;38119;52.710;6.398;2023-03-26T19:47:00;12.18;;;3.67;;
52124;SDS011;38119;52.710;6.398;2023-03-26T19:49:49;12.13;;;3.20;;
52124;SDS011;38119;52.710;6.398;2023-03-26T19:57:34;14.45;;;2.92;;
52124;SDS011;38119;52.710;6.398;2023-03-26T20:00:00;13.02;;;2.67;;
52124;SDS011;38119;52.710;6.398;2023-03-26T20:02:29;12.65;;;2.58;;
52124;SDS011;38119;52.710;6.398;2023-03-26T20:04:55;8.52;;;2.30;;
52124;SDS011;38119;52.710;6.398;2023-03-26T20:07:21;7.57;;;2.03;;
52124;SDS011;38119;52.710;6.398;2023-03-26T20:09:50;10.45;;;2.20;;
52124;SDS011;38119;52.710;6.398;2023-03-26T20:12:17;12.43;;;5.57;;
52124;SDS011;38119;52.710;6.398;2023-03-26T20:14:43;14.48;;;5.32;;
52124;SDS011;38119;52.710;6.398;2023-03-26T20:17:16;13.23;;;4.88;;
52124;SDS011;38119;52.710;6.398;2023-03-26T20:19:43;16.83;;;4.20;;
52124;SDS011;38119;52.710;6.398;2023-03-26T20:22:20;8.23;;;2.40;;
52124;SDS011;38119;52.710;6.398;2023-03-26T20:24:45;10.13;;;2.40;;
52124;SDS011;38119;52.710;6.398;2023-03-26T20:27:12;10.75;;;2.92;;
52124;SDS011;38119;52.710;6.398;2023-03-26T20:29:39;18.80;;;8.43;;
52124;SDS011;38119;52.710;6.398;2023-03-26T20:32:13;23.42;;;9.48;;
52124;SDS011;38119;52.710;6.398;2023-03-26T20:34:47;16.40;;;9.13;;
52124;SDS011;38119;52.710;6.398;2023-03-26T20:37:13;12.73;;;4.40;;
52124;SDS011;38119;52.710;6.398;2023-03-26T20:39:39;12.95;;;3.50;;
52124;SDS011;38119;52.710;6.398;2023-03-26T20:42:05;8.93;;;2.85;;
52124;SDS011;38119;52.710;6.398;2023-03-26T20:44:31;13.18;;;3.53;;
52124;SDS011;38119;52.710;6.398;2023-03-26T20:46:57;8.30;;;2.42;;
52124;SDS011;38119;52.710;6.398;2023-03-26T20:49:23;7.70;;;1.95;;
52124;SDS011;38119;52.710;6.398;2023-03-26T20:51:49;10.98;;;2.20;;
52124;SDS011;38119;52.710;6.398;2023-03-26T20:54:16;7.70;;;1.42;;